Terminal Aerodrome Forecast
Issued by NWS North Platte, NE

Home | Current Version | Previous Version | Text Only | Print | Product List | Glossary On
Versions: 1 2 3 4 5 6 7 8 9 10 11 12 13 14 15 16 17
000
FTUS43 KLBF 261749 RRA
TAFVTN
TAF
KVTN 261749Z 2618/2718 24009KT P6SM FEW250
     FM271300 21008KT P6SM SCT250 WS015/21045KT
     FM271600 21011G17KT P6SM SCT200=

USA.gov is the U.S. government's official web portal to all federal, state and local government web resources and services.